LEMG/AGP METAR and TAF weather

Enter ICAO airport designator
Station Type Date Time Source
LEMG METAR 2022/01/29 11:00 UTC NOAA

LEMG 291100Z 12006KT 080V150 CAVOK 17/06 Q1031 NOSIG


Station Type Date Time Source
LEMG Decoded METAR 2022/01/29 11:00 UTC NOAA

Malaga / Aeropuerto, Spain (LEMG) 36-40N 004-29W 7M
Jan 29, 2022 - 06:00 AM EST / 2022.01.29 1100 UTC
Wind: from the ESE (120 degrees) at 7 MPH (6 KT) (direction variable):0
Visibility: greater than 7 mile(s):0
Temperature: 62 F (17 C)
Dew Point: 42 F (6 C)
Relative Humidity: 48%
Pressure (altimeter): 30.45 in. Hg (1031 hPa)
ob: LEMG 291100Z 12006KT 080V150 CAVOK 17/06 Q1031 NOSIG
cycle: 11

Station Type Date Time Source
LEMG TAF 2022/01/29 06:27 UTC NOAA

TAF LEMG 290500Z 2906/3006 26006KT CAVOK TX18/2913Z TN12/2906Z PROB40
TEMPO 2906/2908 11008KT
BECMG 2909/2911 11020KT PROB40
TEMPO 2910/2918 11020G30KT

Example: see airport list